createdAt,value
2018-08-10T00:01:36.995Z,55993.57
2018-08-10T00:04:06.105Z,56016.19
2018-08-10T00:06:35.252Z,55993.57
2018-08-10T00:09:06.207Z,55974.03
2018-08-10T00:11:35.384Z,55991.51
2018-08-10T00:14:04.566Z,55983.28
2018-08-10T00:16:33.669Z,55991.51
2018-08-10T00:19:02.767Z,55968.89
2018-08-10T00:21:31.871Z,55999.73
2018-08-10T00:24:01.002Z,55996.65
2018-08-10T00:26:30.156Z,55991.51
2018-08-10T00:28:59.396Z,56011.05
2018-08-10T00:31:28.556Z,55994.59
2018-08-10T00:33:57.738Z,55977.11
2018-08-10T00:36:26.865Z,55962.72
2018-08-10T00:38:56.002Z,56007.96
2018-08-10T00:41:25.187Z,55978.14
2018-08-10T00:43:54.342Z,55986.37
2018-08-10T00:46:23.515Z,55981.23
2018-08-10T00:48:52.618Z,55996.65
2018-08-10T00:51:21.738Z,55977.11
2018-08-10T00:53:50.909Z,55997.68
2018-08-10T00:56:19.998Z,55982.25
2018-08-10T00:58:49.127Z,56008.99
2018-08-10T01:01:18.301Z,55982.25
2018-08-10T01:03:47.464Z,56004.87
2018-08-10T01:06:16.651Z,55990.48
2018-08-10T01:08:45.806Z,56004.87
2018-08-10T01:11:15.012Z,55980.20
2018-08-10T01:13:44.164Z,56000.76
2018-08-10T01:16:13.280Z,55999.73
2018-08-10T01:18:42.439Z,56034.70
2018-08-10T01:21:11.660Z,56015.16
2018-08-10T01:23:40.828Z,55997.68
2018-08-10T01:26:09.948Z,56025.44
2018-08-10T01:28:39.174Z,56012.07
2018-08-10T01:31:08.292Z,56031.61
2018-08-10T01:33:37.392Z,56003.85
2018-08-10T01:36:06.950Z,55995.62
2018-08-10T01:38:36.185Z,56007.96
2018-08-10T01:41:05.334Z,55994.59
2018-08-10T01:43:34.534Z,56028.52
2018-08-10T01:46:03.626Z,55991.51
2018-08-10T01:48:32.882Z,56001.79
2018-08-10T01:51:01.994Z,55983.28
2018-08-10T01:53:31.079Z,56016.19
2018-08-10T01:56:00.258Z,56008.99
2018-08-10T01:58:29.482Z,55998.71
2018-08-10T02:00:58.543Z,56008.99
2018-08-10T02:03:27.717Z,56018.24
2018-08-10T02:05:56.849Z,55977.11
2018-08-10T02:08:26.009Z,56013.10
2018-08-10T02:10:55.120Z,56015.16
2018-08-10T02:13:24.215Z,56014.13
2018-08-10T02:15:53.331Z,55997.68
2018-08-10T02:18:22.430Z,56046.00
2018-08-10T02:20:51.556Z,56020.30
2018-08-10T02:23:20.807Z,55996.65
2018-08-10T02:25:56.586Z,56006.93
2018-08-10T02:28:25.754Z,56022.36
2018-08-10T02:30:54.969Z,56012.07
2018-08-10T02:33:24.146Z,55989.45
2018-08-10T02:35:53.354Z,55997.68
2018-08-10T02:38:22.434Z,55983.28
2018-08-10T02:40:51.606Z,55994.59
2018-08-10T02:43:20.737Z,56000.76
2018-08-10T02:45:49.901Z,55995.62
2018-08-10T02:48:19.038Z,56020.30
2018-08-10T02:50:48.183Z,56031.61
2018-08-10T02:53:17.343Z,55995.62
2018-08-10T02:55:46.418Z,55993.57
2018-08-10T02:58:15.530Z,56012.07
2018-08-10T03:00:44.641Z,56035.72
2018-08-10T03:03:13.829Z,56003.85
2018-08-10T03:05:42.936Z,56016.19
2018-08-10T03:08:12.067Z,56023.38
2018-08-10T03:10:41.148Z,56000.76
2018-08-10T03:13:10.292Z,55989.45
2018-08-10T03:15:39.461Z,55978.14
2018-08-10T03:18:08.631Z,56019.27
2018-08-10T03:20:37.758Z,55996.65
2018-08-10T03:23:07.192Z,55991.51
2018-08-10T03:25:36.326Z,56023.38
2018-08-10T03:28:05.468Z,56003.85
2018-08-10T03:30:34.623Z,56022.36
2018-08-10T03:33:03.688Z,56014.13
2018-08-10T03:35:32.766Z,55992.54
2018-08-10T03:38:01.881Z,56011.05
2018-08-10T03:40:30.985Z,56048.06
2018-08-10T03:43:00.182Z,56020.30
2018-08-10T03:45:29.298Z,55996.65
2018-08-10T03:47:58.419Z,56012.07
2018-08-10T03:50:27.521Z,56017.21
2018-08-10T03:52:56.650Z,56032.64
2018-08-10T03:55:25.831Z,56018.24
2018-08-10T03:57:54.956Z,56019.27
2018-08-10T04:00:24.094Z,56047.03
2018-08-10T04:02:53.220Z,56000.76
2018-08-10T04:05:22.368Z,56044.98
2018-08-10T04:07:51.513Z,56046.00
2018-08-10T04:10:20.631Z,56024.41
2018-08-10T04:12:49.766Z,56012.07
2018-08-10T04:15:18.942Z,56022.36
2018-08-10T04:17:48.034Z,56004.87
2018-08-10T04:20:17.162Z,56028.52
2018-08-10T04:22:46.351Z,56019.27
2018-08-10T04:25:15.528Z,56030.58
2018-08-10T04:27:44.671Z,56030.58
2018-08-10T04:30:20.551Z,56032.64
2018-08-10T04:32:49.702Z,56010.02
2018-08-10T04:35:18.891Z,56025.44
2018-08-10T04:37:47.996Z,56005.90
2018-08-10T04:40:17.095Z,56036.75
2018-08-10T04:42:46.222Z,56010.02
2018-08-10T04:45:15.379Z,56025.44
2018-08-10T04:47:47.583Z,56014.13
2018-08-10T04:50:17.412Z,56064.51
2018-08-10T04:52:46.605Z,56024.41
2018-08-10T04:55:15.761Z,56007.96
2018-08-10T04:57:44.920Z,56016.19
2018-08-10T05:00:14.968Z,56018.24
2018-08-10T05:02:44.096Z,55997.68
2018-08-10T05:05:13.183Z,56001.79
2018-08-10T05:07:42.803Z,56023.38
2018-08-10T05:10:11.987Z,56024.41
2018-08-10T05:12:41.353Z,55987.40
2018-08-10T05:15:11.469Z,55990.48
2018-08-10T05:17:40.589Z,56003.85
2018-08-10T05:20:10.806Z,55997.68
2018-08-10T05:22:40.303Z,56010.02
2018-08-10T05:25:09.421Z,56010.02
2018-08-10T05:27:38.589Z,56012.07
2018-08-10T05:30:09.154Z,56026.47
2018-08-10T05:32:38.232Z,56028.52
2018-08-10T05:35:08.402Z,56012.07
2018-08-10T05:37:37.592Z,56011.05
2018-08-10T05:40:08.295Z,56008.99
2018-08-10T05:42:37.374Z,56013.10
2018-08-10T05:45:06.969Z,55998.71
2018-08-10T05:47:36.082Z,56011.05
2018-08-10T05:50:06.219Z,56003.85
2018-08-10T05:52:35.407Z,56024.41
2018-08-10T05:55:04.645Z,56028.52
2018-08-10T05:57:33.835Z,56002.82
2018-08-10T06:00:02.908Z,56016.19
2018-08-10T06:02:32.003Z,55975.06
2018-08-10T06:05:01.153Z,56024.41
2018-08-10T06:07:30.207Z,56000.76
2018-08-10T06:09:59.325Z,55978.14
2018-08-10T06:12:30.012Z,56014.13
2018-08-10T06:14:59.143Z,56022.36
2018-08-10T06:17:28.251Z,55991.51
2018-08-10T06:19:57.497Z,56021.33
2018-08-10T06:22:26.559Z,56028.52
2018-08-10T06:24:55.779Z,55991.51
2018-08-10T06:27:25.043Z,55977.11
2018-08-10T06:29:54.230Z,55997.68
2018-08-10T06:32:23.386Z,56001.79
2018-08-10T06:34:52.544Z,55998.71
2018-08-10T06:37:21.649Z,56008.99
2018-08-10T06:39:51.267Z,56001.79
2018-08-10T06:42:22.013Z,55976.09
2018-08-10T06:44:51.310Z,56001.79
2018-08-10T06:47:20.510Z,55976.09
2018-08-10T06:49:49.644Z,55979.17
2018-08-10T06:52:18.774Z,55993.57
2018-08-10T06:54:47.885Z,55994.59
2018-08-10T06:57:17.069Z,55988.43
2018-08-10T06:59:46.136Z,55978.14
2018-08-10T07:02:15.296Z,55979.17
2018-08-10T07:04:44.362Z,55950.38
2018-08-10T07:07:13.480Z,55966.83
2018-08-10T07:09:42.596Z,55974.03
2018-08-10T07:12:11.689Z,55958.61
2018-08-10T07:14:40.804Z,55968.89
2018-08-10T07:17:09.979Z,56000.76
2018-08-10T07:19:39.090Z,55951.41
2018-08-10T07:22:08.294Z,55973.00
2018-08-10T07:24:37.466Z,55945.24
2018-08-10T07:27:06.674Z,55948.32
2018-08-10T07:29:35.770Z,55956.55
2018-08-10T07:32:04.913Z,55950.38
2018-08-10T07:34:34.060Z,55968.89
2018-08-10T07:37:03.174Z,55945.24
2018-08-10T07:39:32.239Z,55944.21
2018-08-10T07:42:01.369Z,55950.38
2018-08-10T07:44:30.538Z,55941.13
2018-08-10T07:46:59.595Z,55947.30
2018-08-10T07:49:28.764Z,55985.34
2018-08-10T07:51:57.917Z,55921.59
2018-08-10T07:54:27.077Z,55951.41
2018-08-10T07:56:56.234Z,55940.10
2018-08-10T07:59:25.373Z,55932.90
2018-08-10T08:01:54.530Z,55933.93
2018-08-10T08:04:23.699Z,55960.66
2018-08-10T08:06:52.822Z,55978.14
2018-08-10T08:09:21.995Z,55962.72
2018-08-10T08:11:51.107Z,55968.89
2018-08-10T08:14:20.275Z,55954.49
2018-08-10T08:16:49.446Z,55969.92
2018-08-10T08:19:18.631Z,55956.55
2018-08-10T08:22:09.155Z,55995.62
2018-08-10T08:24:39.156Z,55956.55
2018-08-10T08:27:08.339Z,55963.75
2018-08-10T08:29:37.584Z,55946.27
2018-08-10T08:32:07.192Z,55921.59
2018-08-10T08:34:36.338Z,55921.59
2018-08-10T08:37:05.896Z,55958.61
2018-08-10T08:40:47.698Z,55963.75
2018-08-10T08:44:35.581Z,55964.78
2018-08-10T08:47:05.831Z,55938.04
2018-08-10T08:49:36.067Z,55939.07
2018-08-10T08:52:05.625Z,55938.04
2018-08-10T08:55:43.696Z,55933.93
2018-08-10T08:58:12.859Z,55922.62
2018-08-10T09:00:42.031Z,55939.07
2018-08-10T09:03:28.808Z,55951.41
2018-08-10T09:05:58.443Z,55954.49
2018-08-10T09:08:27.641Z,55957.58
2018-08-10T09:10:58.169Z,55944.21
2018-08-10T09:13:27.813Z,55935.98
2018-08-10T09:15:56.964Z,55893.83
2018-08-10T09:18:26.065Z,55830.08
2018-08-10T09:20:55.229Z,55778.67
2018-08-10T09:23:24.319Z,55787.93
2018-08-10T09:25:53.411Z,55822.88
2018-08-10T09:28:22.593Z,55895.89
2018-08-10T09:30:51.775Z,55813.63
2018-08-10T09:33:20.902Z,55845.50
2018-08-10T09:35:56.080Z,55843.45
2018-08-10T09:38:25.722Z,55862.98
2018-08-10T09:40:54.838Z,55803.35
2018-08-10T09:43:23.910Z,55831.11
2018-08-10T09:45:52.969Z,55830.08
2018-08-10T09:48:22.219Z,55916.45
2018-08-10T09:50:51.373Z,55834.20
2018-08-10T09:53:20.500Z,55807.46
2018-08-10T09:55:49.602Z,55804.38
2018-08-10T09:58:19.805Z,55814.66
2018-08-10T10:00:54.959Z,55794.10
2018-08-10T10:03:26.011Z,55781.76
2018-08-10T10:05:56.768Z,55813.63
2018-08-10T10:08:26.355Z,55787.93
2018-08-10T10:10:55.454Z,55849.62
2018-08-10T10:13:24.564Z,55819.80
2018-08-10T10:15:53.778Z,55818.77
2018-08-10T10:18:22.879Z,55843.45
2018-08-10T10:20:51.981Z,55822.88
2018-08-10T10:23:21.091Z,55830.08
2018-08-10T10:25:50.242Z,55837.28
2018-08-10T10:28:19.426Z,55804.38
2018-08-10T10:30:48.698Z,55831.11
2018-08-10T10:33:17.836Z,55841.39
2018-08-10T10:35:46.990Z,55828.02
2018-08-10T10:38:16.104Z,55837.28
2018-08-10T10:40:45.223Z,55866.07
2018-08-10T10:43:14.362Z,55847.56
2018-08-10T10:45:43.495Z,55857.84
2018-08-10T10:48:12.605Z,55883.55
2018-08-10T10:50:41.739Z,55916.45
2018-08-10T10:53:10.933Z,55942.16
2018-08-10T10:55:40.096Z,55906.17
2018-08-10T10:58:09.283Z,55939.07
2018-08-10T11:00:38.462Z,55944.21
2018-08-10T11:03:07.562Z,55985.34
2018-08-10T11:05:36.662Z,55944.21
2018-08-10T11:08:05.753Z,55939.07
2018-08-10T11:10:34.893Z,55943.18
2018-08-10T11:13:04.021Z,55910.28
2018-08-10T11:15:33.216Z,55942.16
2018-08-10T11:18:02.432Z,55930.84
2018-08-10T11:20:31.545Z,55954.49
2018-08-10T11:23:00.671Z,55920.56
2018-08-10T11:25:29.979Z,55943.18
2018-08-10T11:27:59.002Z,55941.13
2018-08-10T11:30:28.181Z,55895.89
2018-08-10T11:32:57.351Z,55917.48
2018-08-10T11:35:26.521Z,55901.03
2018-08-10T11:37:55.614Z,55945.24
2018-08-10T11:40:24.730Z,55900.00
2018-08-10T11:42:53.875Z,55882.52
2018-08-10T11:45:23.023Z,55868.12
2018-08-10T11:47:55.004Z,55906.17
2018-08-10T11:50:24.081Z,55944.21
2018-08-10T11:52:53.200Z,55928.79
2018-08-10T11:55:22.322Z,55960.66
2018-08-10T11:57:51.451Z,55929.82
2018-08-10T12:00:20.579Z,55941.13
2018-08-10T12:02:49.694Z,55914.39
2018-08-10T12:05:18.824Z,55911.31
2018-08-10T12:07:48.044Z,55913.36
2018-08-10T12:10:17.161Z,55890.75
2018-08-10T12:12:46.237Z,55903.08
2018-08-10T12:15:15.382Z,55870.18
2018-08-10T12:17:44.521Z,55892.80
2018-08-10T12:20:13.711Z,55901.03
2018-08-10T12:22:42.814Z,55892.80
2018-08-10T12:25:11.969Z,55900.00
2018-08-10T12:27:41.106Z,55910.28
2018-08-10T12:30:12.440Z,55876.35
2018-08-10T12:32:42.006Z,55864.01
2018-08-10T12:35:11.597Z,55911.31
2018-08-10T12:37:40.719Z,55900.00
2018-08-10T12:40:09.806Z,55886.63
2018-08-10T12:42:42.182Z,55901.03
2018-08-10T12:45:11.299Z,55901.03
2018-08-10T12:47:40.445Z,55891.77
2018-08-10T12:50:10.030Z,55907.20
2018-08-10T12:52:39.278Z,55910.28
2018-08-10T12:55:08.613Z,55935.98
2018-08-10T12:57:37.825Z,55887.66
2018-08-10T13:00:10.439Z,55888.69
2018-08-10T13:02:39.698Z,55905.14
2018-08-10T13:05:09.145Z,55891.77
2018-08-10T13:07:38.266Z,55913.36
2018-08-10T13:10:10.218Z,55910.28
2018-08-10T13:12:39.291Z,55919.54
2018-08-10T13:15:10.735Z,55886.63
2018-08-10T13:17:39.907Z,55929.82
2018-08-10T13:20:12.009Z,55907.20
2018-08-10T13:22:41.101Z,55907.20
2018-08-10T13:25:10.958Z,55843.45
2018-08-10T13:27:40.115Z,55851.68
2018-08-10T13:30:11.231Z,55846.53
2018-08-10T13:32:40.589Z,55861.95
2018-08-10T13:35:09.670Z,55850.64
2018-08-10T13:37:38.759Z,55860.93
2018-08-10T13:40:07.833Z,55842.42
2018-08-10T13:42:36.979Z,55935.98
2018-08-10T13:45:09.413Z,55828.02
2018-08-10T13:47:38.606Z,55836.25
2018-08-10T13:50:10.393Z,55852.70
2018-08-10T13:52:39.493Z,55869.15
2018-08-10T13:55:10.647Z,55898.97
2018-08-10T13:57:39.859Z,55908.23
2018-08-10T14:00:08.973Z,55888.69
2018-08-10T14:02:38.109Z,55919.54
2018-08-10T14:05:07.301Z,55921.59
2018-08-10T14:07:36.406Z,55940.10
2018-08-10T14:10:05.963Z,55898.97
2018-08-10T14:12:35.096Z,55914.39
2018-08-10T14:15:04.213Z,55918.50
2018-08-10T14:17:33.431Z,55901.03
2018-08-10T14:20:02.644Z,55919.54
2018-08-10T14:22:31.738Z,55891.77
2018-08-10T14:25:00.834Z,55909.25
2018-08-10T14:27:29.981Z,55870.18
2018-08-10T14:29:59.069Z,55894.86
2018-08-10T14:32:28.201Z,55906.17
2018-08-10T14:34:57.342Z,55898.97
2018-08-10T14:37:26.432Z,55893.83
2018-08-10T14:39:55.590Z,55902.05
2018-08-10T14:42:24.890Z,55886.63
2018-08-10T14:44:54.136Z,55884.57
2018-08-10T14:47:23.332Z,55911.31
2018-08-10T14:49:52.454Z,55910.28
2018-08-10T14:52:21.625Z,55898.97
2018-08-10T14:54:50.768Z,55878.41
2018-08-10T14:57:19.902Z,55875.32
2018-08-10T14:59:49.005Z,55857.84
2018-08-10T15:02:18.107Z,55837.28
2018-08-10T15:04:47.239Z,55843.45
2018-08-10T15:07:16.331Z,55867.10
2018-08-10T15:09:45.419Z,55868.12
2018-08-10T15:12:14.764Z,55825.97
2018-08-10T15:14:43.788Z,55859.90
2018-08-10T15:17:13.004Z,55860.93
2018-08-10T15:19:42.127Z,55852.70
2018-08-10T15:22:11.201Z,55853.73
2018-08-10T15:24:40.257Z,55875.32
2018-08-10T15:27:09.445Z,55846.53
2018-08-10T15:29:38.558Z,55860.93
2018-08-10T15:32:07.850Z,55903.08
2018-08-10T15:34:37.005Z,55919.54
2018-08-10T15:37:06.195Z,55912.34
2018-08-10T15:39:35.333Z,55915.42
2018-08-10T15:42:04.475Z,55898.97
2018-08-10T15:44:33.580Z,55887.66
2018-08-10T15:47:02.764Z,55913.36
2018-08-10T15:49:31.899Z,55919.54
2018-08-10T15:52:00.991Z,55913.36
2018-08-10T15:54:30.119Z,55928.79
2018-08-10T15:56:59.189Z,55910.28
2018-08-10T15:59:28.360Z,55911.31
2018-08-10T16:01:57.589Z,55916.45
2018-08-10T16:04:26.710Z,55896.91
2018-08-10T16:06:55.825Z,55872.24
2018-08-10T16:09:24.977Z,55883.55
2018-08-10T16:11:54.090Z,55900.00
2018-08-10T16:14:23.239Z,55928.79
2018-08-10T16:16:52.398Z,55920.56
2018-08-10T16:19:21.518Z,55906.17
2018-08-10T16:21:50.589Z,55898.97
2018-08-10T16:24:19.650Z,55889.72
2018-08-10T16:26:48.749Z,55916.45
2018-08-10T16:29:17.872Z,55911.31
2018-08-10T16:31:46.985Z,55894.86
2018-08-10T16:34:16.159Z,55876.35
2018-08-10T16:36:45.225Z,55913.36
2018-08-10T16:39:14.459Z,55933.93
2018-08-10T16:41:43.587Z,55911.31
2018-08-10T16:44:15.597Z,55932.90
2018-08-10T16:46:44.703Z,55933.93
2018-08-10T16:49:13.867Z,55960.66
2018-08-10T16:51:43.186Z,55929.82
2018-08-10T16:54:12.332Z,55918.50
2018-08-10T16:56:41.413Z,55955.52
2018-08-10T16:59:10.719Z,55929.82
2018-08-10T17:01:39.875Z,55896.91
2018-08-10T17:04:09.517Z,55917.48
2018-08-10T17:06:38.634Z,55923.65
2018-08-10T17:09:09.514Z,55920.56
2018-08-10T17:11:38.714Z,55893.83
2018-08-10T17:14:08.416Z,55915.42
2018-08-10T17:16:37.517Z,55933.93
2018-08-10T17:19:06.677Z,55919.54
2018-08-10T17:21:35.883Z,55914.39
2018-08-10T17:24:05.018Z,55917.48
2018-08-10T17:27:05.634Z,55950.38
2018-08-10T17:29:35.147Z,55923.65
2018-08-10T17:32:07.038Z,55921.59
2018-08-10T17:34:36.285Z,55937.01
2018-08-10T17:37:05.684Z,55940.10
2018-08-10T17:39:35.287Z,55927.76
2018-08-10T17:42:04.398Z,55948.32
2018-08-10T17:44:33.643Z,55919.54
2018-08-10T17:47:04.163Z,55925.70
2018-08-10T17:49:33.466Z,55935.98
2018-08-10T17:52:03.146Z,55906.17
2018-08-10T17:54:32.250Z,55913.36
2018-08-10T17:57:01.549Z,55958.61
2018-08-10T17:59:31.161Z,55949.35
2018-08-10T18:02:00.362Z,55922.62
2018-08-10T18:04:29.432Z,55912.34
2018-08-10T18:06:58.707Z,55947.30
2018-08-10T18:09:27.926Z,55930.84
2018-08-10T18:11:57.262Z,55929.82
2018-08-10T18:14:26.350Z,55915.42
2018-08-10T18:16:55.520Z,55946.27
2018-08-10T18:19:24.835Z,55958.61
2018-08-10T18:21:54.051Z,55929.82
2018-08-10T18:24:23.521Z,55923.65
2018-08-10T18:26:52.632Z,55947.30
2018-08-10T18:29:21.799Z,55950.38
2018-08-10T18:31:50.899Z,55929.82
2018-08-10T18:34:20.108Z,55924.68
2018-08-10T18:36:49.253Z,55933.93
2018-08-10T18:39:18.325Z,55940.10
2018-08-10T18:41:47.496Z,55938.04
2018-08-10T18:44:16.604Z,55937.01
2018-08-10T18:46:45.721Z,55956.55
2018-08-10T18:49:14.846Z,55961.69
2018-08-10T18:51:43.979Z,55964.78
2018-08-10T18:54:13.061Z,55957.58
2018-08-10T18:56:42.408Z,55967.86
2018-08-10T18:59:12.004Z,55958.61
2018-08-10T19:01:41.159Z,55976.09
2018-08-10T19:04:10.295Z,55944.21
2018-08-10T19:06:39.510Z,55950.38
2018-08-10T19:09:10.296Z,55989.45
2018-08-10T19:11:39.749Z,55966.83
2018-08-10T19:14:08.872Z,55969.92
2018-08-10T19:16:37.970Z,55962.72
2018-08-10T19:19:07.091Z,55978.14
2018-08-10T19:21:36.359Z,56016.19
2018-08-10T19:24:05.527Z,55979.17
2018-08-10T19:26:34.581Z,55981.23
2018-08-10T19:29:03.665Z,55979.17
2018-08-10T19:31:32.775Z,55990.48
2018-08-10T19:34:01.949Z,55961.69
2018-08-10T19:36:31.045Z,55958.61
2018-08-10T19:39:00.154Z,55953.46
2018-08-10T19:41:29.276Z,55964.78
2018-08-10T19:43:58.368Z,55995.62
2018-08-10T19:46:27.496Z,55956.55
2018-08-10T19:48:56.803Z,55957.58
2018-08-10T19:51:25.887Z,55958.61
2018-08-10T19:53:55.015Z,55977.11
2018-08-10T19:56:24.445Z,55954.49
2018-08-10T19:58:53.945Z,55987.40
2018-08-10T20:01:23.460Z,55994.59
2018-08-10T20:03:53.267Z,55978.14
2018-08-10T20:06:22.657Z,55954.49
2018-08-10T20:08:51.885Z,55968.89
2018-08-10T20:11:21.292Z,55987.40
2018-08-10T20:13:50.563Z,55966.83
2018-08-10T20:16:19.959Z,55974.03
2018-08-10T20:18:49.377Z,55973.00
2018-08-10T20:21:19.001Z,55985.34
2018-08-10T20:23:48.482Z,55973.00
2018-08-10T20:26:17.690Z,55989.45
2018-08-10T20:28:47.001Z,55969.92
2018-08-10T20:31:16.374Z,56014.13
2018-08-10T20:33:45.828Z,55935.98
2018-08-10T20:36:15.250Z,55987.40
2018-08-10T20:38:44.611Z,55993.57
2018-08-10T20:41:14.009Z,55969.92
2018-08-10T20:43:43.272Z,56004.87
2018-08-10T20:46:12.717Z,55969.92
2018-08-10T20:48:42.147Z,55970.95
2018-08-10T20:51:11.652Z,55983.28
2018-08-10T20:53:40.831Z,55976.09
2018-08-10T20:56:10.127Z,55963.75
2018-08-10T20:58:39.279Z,56002.82
2018-08-10T21:01:08.512Z,55983.28
2018-08-10T21:03:37.791Z,55994.59
2018-08-10T21:06:07.265Z,55987.40
2018-08-10T21:08:36.495Z,55960.66
2018-08-10T21:11:05.791Z,55997.68
2018-08-10T21:13:35.012Z,55968.89
2018-08-10T21:16:10.891Z,55988.43
2018-08-10T21:18:40.112Z,55959.63
2018-08-10T21:21:09.430Z,55999.73
2018-08-10T21:23:38.654Z,56012.07
2018-08-10T21:26:07.974Z,55979.17
2018-08-10T21:28:37.405Z,55982.25
2018-08-10T21:31:07.001Z,55985.34
2018-08-10T21:33:36.255Z,55983.28
2018-08-10T21:36:05.656Z,55973.00
2018-08-10T21:38:34.943Z,55977.11
2018-08-10T21:41:04.239Z,56000.76
2018-08-10T21:43:33.489Z,56019.27
2018-08-10T21:46:02.706Z,55993.57
2018-08-10T21:48:32.029Z,56005.90
2018-08-10T21:51:01.219Z,55962.72
2018-08-10T21:53:30.630Z,55973.00
2018-08-10T21:55:59.865Z,56008.99
2018-08-10T21:58:29.145Z,55976.09
2018-08-10T22:03:37.221Z,55977.11
2018-08-10T22:06:06.736Z,55983.28
2018-08-10T22:08:35.965Z,55975.06
2018-08-10T22:11:05.143Z,55977.11
2018-08-10T22:13:39.664Z,55950.38
2018-08-10T22:16:14.240Z,56007.96
2018-08-10T22:18:48.736Z,55962.72
2018-08-10T22:21:18.097Z,55957.58
2018-08-10T22:23:47.347Z,55997.68
2018-08-10T22:28:55.846Z,55975.06
2018-08-10T22:31:25.001Z,55982.25
2018-08-10T22:33:54.112Z,55995.62
2018-08-10T22:36:23.309Z,55948.32
2018-08-10T22:38:52.454Z,55984.31
2018-08-10T22:41:21.622Z,55976.09
2018-08-10T22:43:50.832Z,55961.69
2018-08-10T22:46:20.097Z,55983.28
2018-08-10T22:48:49.378Z,55989.45
2018-08-10T22:51:18.610Z,55984.31
2018-08-10T22:53:47.969Z,55991.51
2018-08-10T22:56:17.274Z,55998.71
2018-08-10T22:58:46.540Z,55999.73
2018-08-10T23:01:15.786Z,55988.43
2018-08-10T23:03:45.061Z,55998.71
2018-08-10T23:06:14.435Z,55969.92
2018-08-10T23:08:43.780Z,55996.65
2018-08-10T23:11:13.141Z,55965.80
2018-08-10T23:13:42.603Z,55995.62
2018-08-10T23:18:52.332Z,55973.00
2018-08-10T23:21:21.484Z,55993.57
2018-08-10T23:23:50.668Z,55989.45
2018-08-10T23:26:19.883Z,55971.97
2018-08-10T23:28:49.092Z,55984.31
2018-08-10T23:33:58.236Z,55973.00
2018-08-10T23:36:27.430Z,56010.02
2018-08-10T23:38:56.496Z,56003.85
2018-08-10T23:41:25.688Z,56010.02
2018-08-10T23:43:54.906Z,55986.37
2018-08-10T23:46:24.031Z,55976.09
2018-08-10T23:48:53.186Z,55980.20
2018-08-10T23:51:22.315Z,55997.68
2018-08-10T23:53:51.426Z,55999.73
2018-08-10T23:56:20.566Z,56002.82
2018-08-10T23:58:49.788Z,55985.34
